Time;durP1;ratioP1;P1;durP2;ratioP2;P2;SDS_P1;SDS_P2;PMS_P1;PMS_P2;Temp;Humidity;BMP_temperature;BMP_pressure;BME280_temperature;BME280_humidity;BME280_pressure;Samples;Min_cycle;Max_cycle;Signal;HPM_P1;HPM_P2
2023/03/27 00:02:12;;;;;;;20.43;5.87;;;;;;;;;;5076772;28;20647;-66
2023/03/27 00:04:40;;;;;;;23.90;6.53;;;;;;;;;;5077701;28;20662;-64
2023/03/27 00:07:06;;;;;;;25.27;6.63;;;;;;;;;;5076197;28;20206;-67
2023/03/27 00:09:32;;;;;;;22.87;6.10;;;;;;;;;;5077226;28;20174;-66
2023/03/27 00:11:59;;;;;;;22.47;4.90;;;;;;;;;;5077099;28;20184;-66
2023/03/27 00:14:25;;;;;;;19.20;5.63;;;;;;;;;;5077141;28;20558;-65
2023/03/27 00:16:51;;;;;;;17.33;5.13;;;;;;;;;;5077224;28;20698;-65
2023/03/27 00:19:17;;;;;;;19.00;6.07;;;;;;;;;;5075570;28;20173;-65
2023/03/27 00:21:43;;;;;;;24.93;6.03;;;;;;;;;;5076919;28;20197;-67
2023/03/27 00:24:10;;;;;;;24.80;7.30;;;;;;;;;;5077065;28;20178;-66
2023/03/27 00:26:39;;;;;;;25.00;7.63;;;;;;;;;;5076757;28;20206;-67
2023/03/27 00:29:05;;;;;;;23.53;6.70;;;;;;;;;;5077395;28;20644;-67
2023/03/27 00:33:57;;;;;;;11.27;4.33;;;;;;;;;;5091721;22;20320;-70
2023/03/27 00:36:23;;;;;;;16.23;5.00;;;;;;;;;;5076718;28;20264;-69
2023/03/27 00:38:51;;;;;;;13.33;4.67;;;;;;;;;;5058330;28;20215;-69
2023/03/27 00:41:17;;;;;;;15.00;4.53;;;;;;;;;;5058171;28;20186;-68
2023/03/27 00:43:44;;;;;;;11.70;4.43;;;;;;;;;;5076170;28;20194;-69
2023/03/27 00:46:26;;;;;;;12.73;4.20;;;;;;;;;;5075992;28;20174;-70
2023/03/27 00:48:52;;;;;;;15.40;3.37;;;;;;;;;;5057991;28;20308;-68
2023/03/27 00:51:19;;;;;;;13.10;3.50;;;;;;;;;;5058097;28;20553;-70
2023/03/27 00:53:46;;;;;;;16.50;3.10;;;;;;;;;;5076199;28;20202;-71
2023/03/27 00:56:14;;;;;;;16.43;3.17;;;;;;;;;;5058048;28;20185;-69
2023/03/27 00:58:45;;;;;;;13.07;3.03;;;;;;;;;;5058233;28;20178;-69
2023/03/27 01:01:13;;;;;;;11.47;3.33;;;;;;;;;;5057956;28;20271;-70
2023/03/27 01:03:40;;;;;;;12.60;2.93;;;;;;;;;;5075941;28;20654;-70
2023/03/27 01:06:06;;;;;;;13.90;3.17;;;;;;;;;;5075749;28;20189;-69
2023/03/27 01:08:33;;;;;;;13.17;3.40;;;;;;;;;;5057042;28;20640;-69
2023/03/27 01:11:02;;;;;;;10.60;2.73;;;;;;;;;;5075902;28;20181;-69
2023/03/27 01:13:36;;;;;;;9.87;2.83;;;;;;;;;;5057648;28;20198;-69
2023/03/27 01:16:10;;;;;;;15.77;2.97;;;;;;;;;;5057548;28;20162;-69
2023/03/27 01:18:59;;;;;;;17.00;4.07;;;;;;;;;;5057220;28;20174;-69
2023/03/27 01:21:41;;;;;;;18.97;3.43;;;;;;;;;;5075464;28;20162;-69
2023/03/27 01:24:10;;;;;;;14.93;3.17;;;;;;;;;;5075651;28;20162;-71
2023/03/27 01:27:00;;;;;;;15.37;2.83;;;;;;;;;;5057513;28;20205;-69
2023/03/27 01:29:26;;;;;;;13.53;2.77;;;;;;;;;;5057226;28;20826;-69
2023/03/27 01:32:11;;;;;;;12.27;3.27;;;;;;;;;;5057180;28;20262;-70
2023/03/27 01:34:41;;;;;;;13.23;3.93;;;;;;;;;;5075769;28;20181;-69
2023/03/27 01:37:10;;;;;;;17.00;4.10;;;;;;;;;;5057384;28;20191;-69
2023/03/27 01:39:39;;;;;;;12.10;3.33;;;;;;;;;;5075370;28;20189;-69
2023/03/27 01:42:08;;;;;;;15.47;3.33;;;;;;;;;;5057275;28;20229;-69
2023/03/27 01:44:38;;;;;;;16.43;3.33;;;;;;;;;;5057085;28;20178;-69
2023/03/27 01:47:25;;;;;;;12.30;3.73;;;;;;;;;;5074775;28;20198;-71
2023/03/27 01:50:00;;;;;;;8.00;3.10;;;;;;;;;;5074630;28;20317;-69
2023/03/27 01:52:28;;;;;;;11.83;3.20;;;;;;;;;;5074878;28;20193;-69
2023/03/27 01:54:57;;;;;;;17.17;3.00;;;;;;;;;;5056873;28;20655;-69
2023/03/27 01:57:28;;;;;;;11.60;3.70;;;;;;;;;;5074755;28;20216;-69
2023/03/27 02:00:00;;;;;;;11.87;3.23;;;;;;;;;;5074707;28;20181;-69
2023/03/27 02:02:28;;;;;;;15.27;3.20;;;;;;;;;;5056585;28;20444;-69
2023/03/27 02:04:58;;;;;;;11.37;3.20;;;;;;;;;;5056676;28;20182;-69
2023/03/27 02:07:37;;;;;;;13.90;3.40;;;;;;;;;;5074326;28;20275;-69
2023/03/27 02:10:14;;;;;;;18.57;4.00;;;;;;;;;;5056435;28;20189;-69
2023/03/27 02:12:42;;;;;;;13.37;3.20;;;;;;;;;;5056497;28;20432;-69
2023/03/27 02:15:11;;;;;;;14.63;3.20;;;;;;;;;;5074599;28;20412;-69
2023/03/27 02:17:41;;;;;;;10.23;2.57;;;;;;;;;;5074735;28;20239;-69
2023/03/27 02:20:16;;;;;;;10.27;2.80;;;;;;;;;;5074242;28;20210;-69
2023/03/27 02:22:44;;;;;;;16.17;3.17;;;;;;;;;;5074767;28;20428;-69
2023/03/27 02:25:31;;;;;;;13.10;3.53;;;;;;;;;;5074389;28;20478;-69
2023/03/27 02:28:11;;;;;;;8.90;2.80;;;;;;;;;;5074184;28;20451;-69
2023/03/27 02:30:45;;;;;;;7.73;2.87;;;;;;;;;;5074346;28;20249;-70
2023/03/27 02:33:14;;;;;;;9.73;3.00;;;;;;;;;;5073901;28;20473;-69
2023/03/27 02:35:43;;;;;;;12.47;2.97;;;;;;;;;;5055916;28;20934;-69
2023/03/27 02:38:16;;;;;;;12.97;3.17;;;;;;;;;;5056087;28;20420;-69
2023/03/27 02:40:48;;;;;;;12.90;3.67;;;;;;;;;;5074254;28;20479;-69
2023/03/27 02:43:21;;;;;;;13.60;2.63;;;;;;;;;;5056043;28;20432;-69
2023/03/27 02:45:53;;;;;;;16.93;3.60;;;;;;;;;;5056161;28;20416;-69
2023/03/27 02:48:41;;;;;;;6.87;3.07;;;;;;;;;;5073897;28;20447;-69
2023/03/27 02:51:17;;;;;;;17.97;4.07;;;;;;;;;;5055807;28;20417;-69
2023/03/27 02:53:46;;;;;;;10.73;3.10;;;;;;;;;;5074176;28;20236;-69
2023/03/27 02:56:14;;;;;;;9.20;3.03;;;;;;;;;;5073911;28;20408;-69
2023/03/27 02:58:50;;;;;;;18.17;3.90;;;;;;;;;;5055794;28;20457;-69
2023/03/27 03:01:18;;;;;;;11.13;3.20;;;;;;;;;;5055798;28;20412;-69
2023/03/27 03:03:52;;;;;;;13.10;3.27;;;;;;;;;;5073732;28;20851;-69
2023/03/27 03:06:18;;;;;;;20.07;3.40;;;;;;;;;;5073932;28;20876;-69
2023/03/27 03:08:46;;;;;;;12.37;4.00;;;;;;;;;;5055352;28;20782;-69
2023/03/27 03:11:13;;;;;;;16.17;3.90;;;;;;;;;;5073758;28;20177;-69
2023/03/27 03:13:40;;;;;;;12.93;3.40;;;;;;;;;;5055588;28;20198;-69
2023/03/27 03:16:06;;;;;;;13.17;3.87;;;;;;;;;;5073510;28;20248;-69
2023/03/27 03:18:32;;;;;;;13.23;3.87;;;;;;;;;;5073867;28;20447;-69
2023/03/27 03:20:58;;;;;;;14.33;3.67;;;;;;;;;;5077432;28;20413;-69
2023/03/27 03:23:25;;;;;;;14.90;3.60;;;;;;;;;;5087241;28;20577;-69
2023/03/27 03:25:55;;;;;;;18.83;4.00;;;;;;;;;;5087376;28;20408;-69
2023/03/27 03:28:21;;;;;;;13.07;3.70;;;;;;;;;;5087718;28;20440;-70
2023/03/27 03:30:49;;;;;;;12.67;3.80;;;;;;;;;;5080562;28;20416;-70
2023/03/27 03:33:15;;;;;;;16.47;4.17;;;;;;;;;;5059721;28;20225;-70
2023/03/27 03:35:42;;;;;;;10.67;3.60;;;;;;;;;;5077760;28;20173;-70
2023/03/27 03:38:07;;;;;;;8.13;3.23;;;;;;;;;;5059511;28;20865;-70
2023/03/27 03:40:33;;;;;;;8.43;2.63;;;;;;;;;;5077582;28;20900;-71
2023/03/27 03:42:59;;;;;;;12.03;2.97;;;;;;;;;;5077483;28;20263;-70
2023/03/27 03:45:25;;;;;;;11.63;3.30;;;;;;;;;;5059239;28;20226;-70
2023/03/27 03:47:51;;;;;;;14.80;3.27;;;;;;;;;;5059152;28;20452;-69
2023/03/27 03:50:17;;;;;;;11.87;3.30;;;;;;;;;;5077152;28;20253;-71
2023/03/27 03:52:44;;;;;;;22.13;4.10;;;;;;;;;;5077075;28;20224;-70
2023/03/27 03:55:11;;;;;;;10.30;3.20;;;;;;;;;;5059195;28;20533;-70
2023/03/27 03:57:37;;;;;;;15.30;3.37;;;;;;;;;;5077126;28;20806;-70
2023/03/27 04:00:07;;;;;;;14.73;3.47;;;;;;;;;;5077269;28;20412;-69
2023/03/27 04:02:33;;;;;;;9.67;3.17;;;;;;;;;;5059225;28;20440;-70
2023/03/27 04:05:00;;;;;;;10.53;3.53;;;;;;;;;;5077519;28;20462;-70
2023/03/27 04:07:30;;;;;;;8.97;3.50;;;;;;;;;;5077094;28;20447;-70
2023/03/27 04:09:57;;;;;;;11.87;3.67;;;;;;;;;;5077414;28;20412;-70
2023/03/27 04:12:23;;;;;;;11.83;2.97;;;;;;;;;;5059862;28;20284;-69
2023/03/27 04:14:49;;;;;;;12.13;3.37;;;;;;;;;;5078287;28;20905;-70
2023/03/27 04:17:15;;;;;;;15.63;3.33;;;;;;;;;;5059258;28;20465;-70
2023/03/27 04:19:41;;;;;;;13.93;3.50;;;;;;;;;;5076636;28;20412;-70
2023/03/27 04:22:07;;;;;;;12.43;3.60;;;;;;;;;;5076432;28;20256;-70
2023/03/27 04:24:33;;;;;;;11.93;3.17;;;;;;;;;;5076447;28;20264;-70
2023/03/27 04:27:02;;;;;;;11.00;3.73;;;;;;;;;;5076485;28;20544;-70
2023/03/27 04:29:29;;;;;;;9.37;3.47;;;;;;;;;;5058370;28;20236;-69
2023/03/27 04:31:56;;;;;;;14.67;3.40;;;;;;;;;;5076650;28;20432;-70
2023/03/27 04:34:22;;;;;;;15.83;3.63;;;;;;;;;;5058374;28;20408;-70
2023/03/27 04:36:49;;;;;;;17.00;3.23;;;;;;;;;;5076266;28;20554;-70
2023/03/27 04:39:16;;;;;;;9.97;4.07;;;;;;;;;;5076473;28;20416;-70
2023/03/27 04:41:44;;;;;;;17.87;3.93;;;;;;;;;;5075133;28;20530;-69
2023/03/27 04:44:10;;;;;;;9.53;3.80;;;;;;;;;;5057848;28;20481;-70
2023/03/27 04:46:36;;;;;;;13.23;3.50;;;;;;;;;;5075859;28;20447;-70
2023/03/27 04:49:02;;;;;;;15.93;3.70;;;;;;;;;;5057883;28;20827;-69
2023/03/27 04:51:31;;;;;;;18.07;3.87;;;;;;;;;;5076082;28;20404;-70
2023/03/27 04:53:57;;;;;;;12.80;3.00;;;;;;;;;;5075952;28;20184;-70
2023/03/27 04:56:23;;;;;;;18.30;4.43;;;;;;;;;;5057916;28;20404;-69
2023/03/27 04:58:49;;;;;;;8.93;3.30;;;;;;;;;;5075755;28;20170;-70
2023/03/27 05:01:16;;;;;;;9.47;3.63;;;;;;;;;;5076272;28;20408;-70
2023/03/27 05:03:42;;;;;;;10.50;3.40;;;;;;;;;;5075782;28;20190;-69
2023/03/27 05:06:08;;;;;;;11.10;3.30;;;;;;;;;;5057607;28;20409;-70
2023/03/27 05:08:34;;;;;;;9.77;3.63;;;;;;;;;;5075560;28;20588;-70
2023/03/27 05:11:01;;;;;;;16.37;4.23;;;;;;;;;;5075840;28;20176;-70
2023/03/27 05:13:27;;;;;;;12.77;3.93;;;;;;;;;;5057912;28;20208;-70
2023/03/27 05:15:53;;;;;;;12.53;4.20;;;;;;;;;;5075442;28;20894;-70
2023/03/27 05:18:20;;;;;;;12.03;3.57;;;;;;;;;;5075755;28;20436;-69
2023/03/27 05:20:48;;;;;;;11.20;3.40;;;;;;;;;;5075320;28;20491;-69
2023/03/27 05:23:15;;;;;;;15.03;3.70;;;;;;;;;;5075287;28;20200;-70
2023/03/27 05:25:41;;;;;;;11.53;3.60;;;;;;;;;;5075488;28;20436;-70
2023/03/27 05:28:08;;;;;;;12.87;3.77;;;;;;;;;;5075069;28;20452;-70
2023/03/27 05:30:34;;;;;;;11.90;3.87;;;;;;;;;;5057445;28;20243;-70
2023/03/27 05:33:00;;;;;;;12.13;3.50;;;;;;;;;;5057154;28;20300;-69
2023/03/27 05:35:29;;;;;;;15.03;3.63;;;;;;;;;;5075365;28;20836;-69
2023/03/27 05:37:56;;;;;;;13.10;3.70;;;;;;;;;;5075185;28;20182;-70
2023/03/27 05:40:26;;;;;;;13.00;3.67;;;;;;;;;;5057100;28;20186;-70
2023/03/27 05:42:53;;;;;;;13.10;3.80;;;;;;;;;;5075076;28;20624;-69
2023/03/27 05:45:19;;;;;;;13.43;4.13;;;;;;;;;;5074858;28;20178;-70
2023/03/27 05:47:50;;;;;;;13.93;3.87;;;;;;;;;;5057026;28;20836;-70
2023/03/27 05:50:18;;;;;;;11.60;3.60;;;;;;;;;;5075043;28;20414;-70
2023/03/27 05:52:44;;;;;;;9.83;3.20;;;;;;;;;;5074781;28;20481;-70
2023/03/27 05:55:10;;;;;;;10.50;3.50;;;;;;;;;;5074759;28;20408;-69
2023/03/27 05:57:37;;;;;;;6.23;3.13;;;;;;;;;;5056973;28;20416;-70
2023/03/27 06:00:09;;;;;;;8.13;3.63;;;;;;;;;;5057006;28;20181;-70
2023/03/27 06:02:35;;;;;;;14.03;4.20;;;;;;;;;;5084037;28;20212;-72
2023/03/27 06:05:03;;;;;;;6.73;3.00;;;;;;;;;;5074556;28;20634;-71
2023/03/27 06:07:29;;;;;;;11.00;4.00;;;;;;;;;;5074772;28;20269;-70
2023/03/27 06:09:55;;;;;;;13.07;5.20;;;;;;;;;;5088180;28;20235;-70
2023/03/27 06:12:22;;;;;;;10.90;3.80;;;;;;;;;;5075783;28;20193;-70
2023/03/27 06:14:48;;;;;;;6.40;2.90;;;;;;;;;;5075262;28;20419;-69
2023/03/27 06:17:14;;;;;;;6.77;3.57;;;;;;;;;;5056573;28;20216;-70
2023/03/27 06:19:41;;;;;;;9.83;3.70;;;;;;;;;;5056355;28;20217;-70
2023/03/27 06:22:07;;;;;;;6.90;3.40;;;;;;;;;;5074378;28;20194;-70
2023/03/27 06:24:33;;;;;;;7.80;3.33;;;;;;;;;;5057599;28;20178;-69
2023/03/27 06:27:01;;;;;;;10.00;3.63;;;;;;;;;;5056256;28;20216;-70
2023/03/27 06:29:28;;;;;;;9.00;3.63;;;;;;;;;;5056710;28;20595;-70
2023/03/27 06:31:57;;;;;;;8.27;3.13;;;;;;;;;;5074358;28;20283;-70
2023/03/27 06:34:23;;;;;;;7.90;3.20;;;;;;;;;;5074784;28;20162;-70
2023/03/27 06:36:49;;;;;;;9.97;3.20;;;;;;;;;;5087505;22;20610;-67
2023/03/27 06:39:16;;;;;;;7.20;2.33;;;;;;;;;;5074871;28;20166;-68
2023/03/27 06:41:42;;;;;;;7.83;2.63;;;;;;;;;;5056955;28;20180;-66
2023/03/27 06:44:08;;;;;;;6.90;2.40;;;;;;;;;;5074911;28;20170;-67
2023/03/27 06:46:34;;;;;;;4.40;2.40;;;;;;;;;;5074234;28;20614;-65
2023/03/27 06:49:00;;;;;;;8.70;3.37;;;;;;;;;;5056585;28;20682;-67
2023/03/27 06:51:26;;;;;;;9.63;2.97;;;;;;;;;;5074601;28;20174;-68
2023/03/27 06:53:52;;;;;;;6.83;3.60;;;;;;;;;;5056184;28;20238;-68
2023/03/27 06:56:19;;;;;;;6.97;3.27;;;;;;;;;;5073435;28;20197;-67
2023/03/27 06:58:45;;;;;;;5.83;3.20;;;;;;;;;;5055434;28;20174;-67
2023/03/27 07:01:12;;;;;;;4.17;2.30;;;;;;;;;;5073620;28;20178;-68
2023/03/27 07:03:38;;;;;;;5.20;2.37;;;;;;;;;;5073603;28;20311;-68
2023/03/27 07:06:04;;;;;;;5.87;2.27;;;;;;;;;;5072580;28;20252;-68
2023/03/27 07:08:30;;;;;;;6.63;2.20;;;;;;;;;;5073205;28;20620;-68
2023/03/27 07:10:56;;;;;;;5.20;1.87;;;;;;;;;;5055277;28;20177;-68
2023/03/27 07:13:22;;;;;;;7.77;2.80;;;;;;;;;;5073931;28;20654;-68
2023/03/27 07:15:48;;;;;;;5.40;2.23;;;;;;;;;;5073274;28;20231;-68
2023/03/27 07:18:15;;;;;;;8.37;1.80;;;;;;;;;;5073380;28;20185;-69
2023/03/27 07:20:41;;;;;;;5.03;2.33;;;;;;;;;;5073911;28;20232;-68
2023/03/27 07:23:07;;;;;;;3.67;1.90;;;;;;;;;;5073355;28;20182;-68
2023/03/27 07:25:37;;;;;;;6.83;2.37;;;;;;;;;;5073844;28;20181;-66
2023/03/27 07:28:08;;;;;;;10.30;3.53;;;;;;;;;;5073512;28;20202;-68
2023/03/27 07:30:34;;;;;;;4.73;2.33;;;;;;;;;;5073417;28;20220;-68
2023/03/27 07:33:01;;;;;;;5.83;2.30;;;;;;;;;;5073370;28;20181;-68
2023/03/27 07:35:27;;;;;;;7.90;2.80;;;;;;;;;;5073569;28;20181;-66
2023/03/27 07:37:53;;;;;;;7.63;3.83;;;;;;;;;;5073462;28;20242;-69
2023/03/27 07:40:21;;;;;;;7.87;2.60;;;;;;;;;;5073410;28;20656;-68
2023/03/27 07:42:48;;;;;;;3.40;2.40;;;;;;;;;;5073251;28;20186;-68
2023/03/27 07:45:15;;;;;;;6.33;2.37;;;;;;;;;;5073576;28;20204;-66
2023/03/27 07:47:42;;;;;;;5.07;2.20;;;;;;;;;;5055015;28;20213;-68
2023/03/27 07:50:10;;;;;;;7.03;2.30;;;;;;;;;;5055164;28;20651;-67
2023/03/27 07:52:36;;;;;;;3.90;1.80;;;;;;;;;;5072881;28;20174;-68
2023/03/27 07:55:02;;;;;;;5.67;2.47;;;;;;;;;;5072775;28;20178;-68
2023/03/27 07:57:28;;;;;;;6.97;2.77;;;;;;;;;;5054844;28;20640;-67
2023/03/27 07:59:56;;;;;;;8.10;2.50;;;;;;;;;;5073499;28;20231;-68
2023/03/27 08:02:23;;;;;;;6.57;1.90;;;;;;;;;;5073026;28;20269;-68
2023/03/27 08:04:50;;;;;;;7.37;2.57;;;;;;;;;;5055276;28;20184;-68
2023/03/27 08:07:17;;;;;;;6.53;2.10;;;;;;;;;;5055205;28;20205;-68
2023/03/27 08:09:43;;;;;;;6.47;1.90;;;;;;;;;;5073142;28;20261;-66
2023/03/27 08:12:08;;;;;;;4.10;2.20;;;;;;;;;;5055142;28;20178;-67
2023/03/27 08:14:34;;;;;;;9.77;2.60;;;;;;;;;;5073281;28;20174;-68
2023/03/27 08:17:00;;;;;;;6.60;2.87;;;;;;;;;;5056970;28;20271;-67
2023/03/27 08:19:26;;;;;;;5.73;2.27;;;;;;;;;;5077413;28;20178;-68
2023/03/27 08:21:52;;;;;;;4.33;2.40;;;;;;;;;;5058250;28;20178;-67
2023/03/27 08:24:18;;;;;;;9.10;2.30;;;;;;;;;;5076514;28;20189;-68
2023/03/27 08:26:45;;;;;;;5.50;2.17;;;;;;;;;;5076605;28;20212;-66
2023/03/27 08:29:11;;;;;;;5.20;2.27;;;;;;;;;;5076892;28;20670;-68
2023/03/27 08:31:38;;;;;;;4.43;2.27;;;;;;;;;;5077050;28;20174;-67
2023/03/27 08:34:04;;;;;;;4.50;2.53;;;;;;;;;;5077446;28;20183;-66
2023/03/27 08:36:30;;;;;;;6.83;2.23;;;;;;;;;;5076368;28;20214;-67
2023/03/27 08:38:56;;;;;;;7.37;2.53;;;;;;;;;;5057885;28;20174;-66
2023/03/27 08:41:29;;;;;;;7.17;2.40;;;;;;;;;;5057777;28;20260;-68
2023/03/27 08:43:56;;;;;;;8.47;3.17;;;;;;;;;;5076338;28;20227;-66
2023/03/27 08:46:25;;;;;;;5.73;2.27;;;;;;;;;;5057883;28;20198;-67
2023/03/27 08:49:11;;;;;;;10.03;3.07;;;;;;;;;;5058105;28;20189;-67
2023/03/27 08:51:40;;;;;;;7.47;2.43;;;;;;;;;;5075895;28;20636;-68
2023/03/27 08:54:17;;;;;;;8.70;2.30;;;;;;;;;;5058132;28;20193;-67
2023/03/27 08:56:44;;;;;;;11.27;3.40;;;;;;;;;;5057379;28;20197;-67
2023/03/27 08:59:15;;;;;;;5.20;2.87;;;;;;;;;;5075313;28;20191;-67
2023/03/27 09:01:50;;;;;;;7.17;2.83;;;;;;;;;;5075997;28;20185;-66
2023/03/27 09:04:27;;;;;;;6.33;2.80;;;;;;;;;;5075935;28;20264;-67
2023/03/27 09:07:07;;;;;;;4.30;2.60;;;;;;;;;;5057704;28;20259;-66
2023/03/27 09:09:57;;;;;;;6.13;3.00;;;;;;;;;;5075868;28;20248;-66
2023/03/27 09:12:27;;;;;;;6.00;2.93;;;;;;;;;;5058274;28;20170;-67
2023/03/27 09:15:10;;;;;;;5.67;3.33;;;;;;;;;;5058130;28;20601;-67
2023/03/27 09:17:39;;;;;;;8.47;3.10;;;;;;;;;;5075723;28;20263;-67
2023/03/27 09:20:11;;;;;;;6.30;2.27;;;;;;;;;;5057561;28;20181;-65
2023/03/27 09:22:42;;;;;;;8.60;3.93;;;;;;;;;;5076467;28;20632;-67
2023/03/27 09:25:17;;;;;;;6.77;3.03;;;;;;;;;;5076075;28;20166;-66
2023/03/27 09:27:43;;;;;;;8.90;2.80;;;;;;;;;;5074938;28;20205;-66
2023/03/27 09:30:09;;;;;;;8.80;3.67;;;;;;;;;;5074597;28;20185;-68
2023/03/27 09:32:36;;;;;;;6.23;2.70;;;;;;;;;;5075183;28;20178;-68
2023/03/27 09:35:03;;;;;;;7.47;2.20;;;;;;;;;;5075460;28;20231;-68
2023/03/27 09:37:29;;;;;;;8.47;2.30;;;;;;;;;;5022376;28;1022017;-67
2023/03/27 09:39:58;;;;;;;6.30;2.37;;;;;;;;;;5058591;28;20628;-67
2023/03/27 09:42:32;;;;;;;8.03;2.90;;;;;;;;;;5076434;28;20193;-67
2023/03/27 09:45:01;;;;;;;6.07;2.30;;;;;;;;;;5075816;28;20234;-68
2023/03/27 09:47:33;;;;;;;6.27;2.40;;;;;;;;;;5056545;28;20209;-68
2023/03/27 09:50:07;;;;;;;10.30;2.77;;;;;;;;;;5075476;28;20181;-66
2023/03/27 09:52:37;;;;;;;7.23;2.70;;;;;;;;;;5075005;28;20197;-66
2023/03/27 09:55:22;;;;;;;9.93;2.80;;;;;;;;;;5075481;28;20173;-68
2023/03/27 09:57:48;;;;;;;5.53;2.10;;;;;;;;;;5074468;28;20197;-67
2023/03/27 10:00:33;;;;;;;8.20;2.40;;;;;;;;;;5057312;28;20343;-67
2023/03/27 10:03:00;;;;;;;9.20;2.13;;;;;;;;;;5074499;28;20186;-68
2023/03/27 10:05:26;;;;;;;9.80;2.50;;;;;;;;;;5057672;28;20569;-66
2023/03/27 10:07:52;;;;;;;4.77;2.10;;;;;;;;;;5075795;28;20334;-67
2023/03/27 10:10:19;;;;;;;8.03;2.10;;;;;;;;;;5076479;28;20256;-68
2023/03/27 10:12:49;;;;;;;8.63;2.33;;;;;;;;;;5075916;28;20173;-67
2023/03/27 10:15:30;;;;;;;6.10;3.20;;;;;;;;;;5076505;28;20174;-67
2023/03/27 10:17:57;;;;;;;8.07;3.00;;;;;;;;;;5058880;28;20215;-66
2023/03/27 10:20:23;;;;;;;13.27;3.10;;;;;;;;;;5077909;28;20178;-66
2023/03/27 10:22:52;;;;;;;5.97;2.77;;;;;;;;;;5078004;28;20691;-67
2023/03/27 10:25:19;;;;;;;8.73;2.57;;;;;;;;;;5057499;28;20186;-67
2023/03/27 10:27:46;;;;;;;5.87;1.93;;;;;;;;;;5076518;28;20213;-67
2023/03/27 10:30:28;;;;;;;8.20;2.37;;;;;;;;;;5082197;28;20656;-65
2023/03/27 10:32:54;;;;;;;6.27;1.93;;;;;;;;;;5080305;28;20219;-69
2023/03/27 10:35:33;;;;;;;8.23;2.27;;;;;;;;;;5060612;28;20269;-68
2023/03/27 10:38:00;;;;;;;6.43;1.90;;;;;;;;;;5075553;28;20216;-66
2023/03/27 10:40:26;;;;;;;5.83;1.90;;;;;;;;;;5056584;28;20181;-65
2023/03/27 10:42:56;;;;;;;6.43;1.80;;;;;;;;;;5057809;28;20186;-67
2023/03/27 10:45:23;;;;;;;8.93;2.57;;;;;;;;;;5057137;28;20209;-66
2023/03/27 10:47:52;;;;;;;4.30;1.90;;;;;;;;;;5075570;28;20612;-68
2023/03/27 10:50:32;;;;;;;3.67;2.30;;;;;;;;;;5075636;28;20257;-67
2023/03/27 10:53:01;;;;;;;4.53;1.63;;;;;;;;;;5056590;28;20639;-68
2023/03/27 10:55:50;;;;;;;3.53;3.10;;;;;;;;;;5074846;28;20178;-67
2023/03/27 10:58:25;;;;;;;1.97;1.60;;;;;;;;;;5075307;28;20243;-67
2023/03/27 11:01:06;;;;;;;3.30;1.67;;;;;;;;;;5056835;28;20191;-65
2023/03/27 11:03:34;;;;;;;2.60;1.70;;;;;;;;;;5074587;28;20184;-65
2023/03/27 11:06:02;;;;;;;1.50;1.40;;;;;;;;;;5057022;28;20201;-68
2023/03/27 11:08:47;;;;;;;4.70;1.87;;;;;;;;;;5074140;28;20205;-66
2023/03/27 11:11:20;;;;;;;2.10;1.80;;;;;;;;;;5056462;28;20180;-69
2023/03/27 11:13:47;;;;;;;2.40;1.70;;;;;;;;;;5075188;28;20201;-67
2023/03/27 11:16:14;;;;;;;2.57;1.10;;;;;;;;;;5074284;28;20193;-68
2023/03/27 11:18:51;;;;;;;5.63;1.70;;;;;;;;;;5056941;28;20188;-68
2023/03/27 11:21:21;;;;;;;4.30;1.90;;;;;;;;;;5074552;28;20662;-67
2023/03/27 11:23:50;;;;;;;3.83;2.00;;;;;;;;;;5074582;28;20652;-68
2023/03/27 11:26:18;;;;;;;2.50;1.60;;;;;;;;;;5056665;28;20206;-67
2023/03/27 11:29:08;;;;;;;3.03;1.70;;;;;;;;;;5075171;28;20262;-67
2023/03/27 11:32:00;;;;;;;6.30;1.77;;;;;;;;;;5074252;28;20155;-68
2023/03/27 11:34:37;;;;;;;5.63;3.20;;;;;;;;;;5070729;28;20201;-66
2023/03/27 11:37:11;;;;;;;15.70;11.93;;;;;;;;;;5073836;28;20213;-68
2023/03/27 11:39:40;;;;;;;2.97;2.53;;;;;;;;;;5055788;28;20178;-68
2023/03/27 11:42:15;;;;;;;5.27;2.17;;;;;;;;;;5055012;28;20185;-68
2023/03/27 11:44:41;;;;;;;3.13;1.57;;;;;;;;;;5072591;28;20178;-69
2023/03/27 11:47:10;;;;;;;4.07;1.83;;;;;;;;;;5072690;28;20236;-68
2023/03/27 11:49:49;;;;;;;6.97;2.37;;;;;;;;;;5074055;28;20177;-67
2023/03/27 11:52:18;;;;;;;6.57;1.70;;;;;;;;;;5058783;28;20185;-68
2023/03/27 11:54:44;;;;;;;4.90;2.20;;;;;;;;;;5078505;28;20584;-68
2023/03/27 11:57:18;;;;;;;4.40;2.03;;;;;;;;;;5078330;28;20208;-67
2023/03/27 12:00:10;;;;;;;2.23;1.60;;;;;;;;;;5078484;28;20154;-68
2023/03/27 12:02:48;;;;;;;3.33;2.27;;;;;;;;;;5060303;28;20182;-67
2023/03/27 12:05:14;;;;;;;2.37;1.57;;;;;;;;;;5078240;28;20174;-66
2023/03/27 12:07:48;;;;;;;2.30;1.50;;;;;;;;;;5077544;28;20202;-64
2023/03/27 12:10:14;;;;;;;3.00;1.80;;;;;;;;;;5078235;28;20173;-67
2023/03/27 12:12:39;;;;;;;3.93;2.03;;;;;;;;;;5077700;28;20173;-66
2023/03/27 12:15:21;;;;;;;2.83;1.60;;;;;;;;;;5077986;28;20689;-68
2023/03/27 12:17:59;;;;;;;4.20;1.90;;;;;;;;;;5059769;28;20733;-67
2023/03/27 12:20:37;;;;;;;2.40;1.20;;;;;;;;;;5077367;28;20252;-66
2023/03/27 12:23:15;;;;;;;4.23;1.70;;;;;;;;;;5077565;28;20169;-65
2023/03/27 12:25:50;;;;;;;4.43;2.10;;;;;;;;;;5077369;28;20166;-66
2023/03/27 12:28:27;;;;;;;3.27;1.80;;;;;;;;;;5077386;28;20229;-64
2023/03/27 12:31:00;;;;;;;2.03;1.30;;;;;;;;;;5058297;28;20176;-65
2023/03/27 12:33:42;;;;;;;5.27;2.07;;;;;;;;;;5077126;28;20182;-68
2023/03/27 12:36:12;;;;;;;4.50;2.30;;;;;;;;;;5077060;28;20224;-66
2023/03/27 12:38:39;;;;;;;5.23;1.23;;;;;;;;;;5077141;28;20181;-65
2023/03/27 12:41:14;;;;;;;7.73;2.10;;;;;;;;;;5059132;28;20212;-65
2023/03/27 12:43:43;;;;;;;4.07;1.87;;;;;;;;;;5076997;28;20158;-65
2023/03/27 12:46:11;;;;;;;3.23;1.73;;;;;;;;;;5098177;22;20233;-69
2023/03/27 12:48:50;;;;;;;2.97;1.60;;;;;;;;;;5075717;28;20197;-71
2023/03/27 12:51:18;;;;;;;2.57;1.50;;;;;;;;;;5057506;28;20213;-68
2023/03/27 12:53:50;;;;;;;2.97;1.60;;;;;;;;;;5075401;28;20269;-68
2023/03/27 12:56:16;;;;;;;1.53;1.30;;;;;;;;;;5075202;28;20612;-70
2023/03/27 12:58:47;;;;;;;5.83;1.63;;;;;;;;;;5057211;28;20220;-69
2023/03/27 13:01:21;;;;;;;3.23;1.60;;;;;;;;;;5075791;28;20197;-70
2023/03/27 13:03:50;;;;;;;4.50;2.03;;;;;;;;;;5056249;28;20177;-69
2023/03/27 13:06:25;;;;;;;3.73;1.73;;;;;;;;;;5076215;28;20276;-69
2023/03/27 13:08:56;;;;;;;3.73;1.50;;;;;;;;;;5076147;28;20678;-69
2023/03/27 13:11:21;;;;;;;3.17;1.40;;;;;;;;;;5077113;28;20162;-69
2023/03/27 13:14:12;;;;;;;2.67;1.90;;;;;;;;;;5087596;28;20635;-69
2023/03/27 13:16:44;;;;;;;2.80;1.90;;;;;;;;;;5077214;28;20684;-69
2023/03/27 13:19:20;;;;;;;3.23;1.37;;;;;;;;;;5077083;28;20162;-69
2023/03/27 13:21:49;;;;;;;4.20;1.70;;;;;;;;;;5076598;28;20235;-69
2023/03/27 13:24:34;;;;;;;4.27;1.57;;;;;;;;;;5075940;28;20177;-69
2023/03/27 13:27:23;;;;;;;4.00;2.13;;;;;;;;;;5076232;28;20204;-69
2023/03/27 13:29:50;;;;;;;6.00;2.00;;;;;;;;;;5038377;28;20251;-69
2023/03/27 13:32:19;;;;;;;4.40;2.20;;;;;;;;;;5075891;28;20200;-69
2023/03/27 13:35:00;;;;;;;3.67;1.80;;;;;;;;;;5058148;28;20193;-69
2023/03/27 13:37:26;;;;;;;2.43;1.70;;;;;;;;;;5057614;28;20165;-69
2023/03/27 13:39:55;;;;;;;1.50;1.33;;;;;;;;;;5057824;28;20189;-69
2023/03/27 13:42:22;;;;;;;4.43;2.00;;;;;;;;;;5075441;28;20186;-69
2023/03/27 13:44:57;;;;;;;4.60;2.17;;;;;;;;;;5057494;28;20210;-69
2023/03/27 13:47:27;;;;;;;4.10;2.03;;;;;;;;;;5075338;28;20185;-69
2023/03/27 13:50:01;;;;;;;3.80;1.80;;;;;;;;;;5081438;28;20651;-69
2023/03/27 13:52:36;;;;;;;3.30;1.90;;;;;;;;;;5074845;28;20189;-70
2023/03/27 13:55:15;;;;;;;5.77;2.33;;;;;;;;;;5074181;28;20550;-69
2023/03/27 13:57:47;;;;;;;2.80;2.07;;;;;;;;;;5056282;28;20211;-70
2023/03/27 14:00:14;;;;;;;5.50;2.40;;;;;;;;;;5073900;28;20644;-70
2023/03/27 14:02:43;;;;;;;6.83;3.13;;;;;;;;;;5073952;28;20257;-70
2023/03/27 14:05:27;;;;;;;3.43;2.30;;;;;;;;;;5055997;28;20205;-70
2023/03/27 14:08:12;;;;;;;4.87;2.17;;;;;;;;;;5073847;28;20194;-70
2023/03/27 14:10:57;;;;;;;5.57;1.80;;;;;;;;;;5055971;28;20283;-70
2023/03/27 14:13:42;;;;;;;3.70;1.70;;;;;;;;;;5074402;28;20158;-69
2023/03/27 14:16:08;;;;;;;7.33;1.60;;;;;;;;;;5055669;28;20208;-69
2023/03/27 14:18:54;;;;;;;2.70;1.63;;;;;;;;;;5055696;28;20181;-69
2023/03/27 14:21:22;;;;;;;4.00;1.97;;;;;;;;;;5055849;28;20170;-70
2023/03/27 14:24:06;;;;;;;5.07;2.03;;;;;;;;;;5055585;28;20193;-70
2023/03/27 14:26:33;;;;;;;3.73;1.40;;;;;;;;;;5073416;28;20198;-69
2023/03/27 14:29:00;;;;;;;5.33;1.97;;;;;;;;;;5055543;28;20177;-70
2023/03/27 14:31:27;;;;;;;3.60;1.70;;;;;;;;;;5055555;28;20181;-70
2023/03/27 14:33:56;;;;;;;5.27;3.07;;;;;;;;;;5055221;28;20212;-69
2023/03/27 14:36:27;;;;;;;2.60;1.50;;;;;;;;;;5055711;28;20197;-69
2023/03/27 14:38:54;;;;;;;3.93;1.50;;;;;;;;;;5055239;28;20185;-70
2023/03/27 14:41:22;;;;;;;6.07;4.23;;;;;;;;;;5073073;28;20173;-68
2023/03/27 14:43:50;;;;;;;3.00;1.50;;;;;;;;;;5055122;28;20189;-70
2023/03/27 14:46:18;;;;;;;6.40;2.20;;;;;;;;;;5072973;28;20717;-70
2023/03/27 14:48:45;;;;;;;5.27;2.10;;;;;;;;;;5055001;28;20212;-70
2023/03/27 14:51:14;;;;;;;1.60;1.30;;;;;;;;;;5072927;28;20181;-70
2023/03/27 14:53:43;;;;;;;2.03;1.20;;;;;;;;;;5055075;28;20178;-70
2023/03/27 14:56:36;;;;;;;4.60;1.50;;;;;;;;;;5073012;28;20221;-70
2023/03/27 14:59:04;;;;;;;4.43;1.70;;;;;;;;;;5069679;28;20197;-70